Terminal Aerodrome Forecast
Issued by NWS

Home | Current Version | Previous Version | Text Only | Print | Product List | Glossary On
Versions: 1 2 3 4 5 6 7 8 9 10 11 12 13 14 15 16 17 18 19 20 21 22 23 24 25 26 27 28
000
FTUS44 KEWX 041343 AAA
TAFSSF
TAF AMD
KSSF 041343Z 0414/0512 03010KT P6SM -SHRA OVC015
     FM042000 03012KT 5SM -SHRA BKN013 OVC020
      TEMPO 0503/0507 2SM +TSRA OVC009CB
     FM050700 03012KT 5SM -SHRA BR BKN008 OVC040=

USA.gov is the U.S. government's official web portal to all federal, state and local government web resources and services.